Globe, Arizona
Current Conditions -  °F | °C
As of 8:47 AM on Thursday 27 Nov 2014 (Local Time) from KIWA Reporting Station
Clear Clear  
Wind Chill: 50°   Ceiling: Unl
Heat Index: 50°   Visibility: 45mi
Dew Point: 27°   Wind: 5mph
Humidity: 40%   Direction: 120°ESE
Pressure: 30.24"   Gusts: NA
Location:  33.4°N, 110.78°W
Report Text: KIWA 271547Z 12004KT 45SM SKC 10/M03 A3024
Loading
Personal Weather Stations






























Interactive Weather Map New forecast layout! Learn more

10-Day Weather Forecast

Advertisements
Track Severe Weather on mobile